Time;durP1;ratioP1;P1;durP2;ratioP2;P2;SDS_P1;SDS_P2;PMS_P1;PMS_P2;Temp;Humidity;BMP_temperature;BMP_pressure;BME280_temperature;BME280_humidity;BME280_pressure;Samples;Min_cycle;Max_cycle;Signal;HPM_P1;HPM_P2
2022/10/04 00:02:00;;;;;;;25.65;16.33;;;10.90;99.90;;;;;;5054911;28;20132;-27
2022/10/04 00:04:32;;;;;;;30.17;15.60;;;10.90;99.90;;;;;;5054368;28;20044;-27
2022/10/04 00:07:03;;;;;;;30.23;16.23;;;10.90;99.90;;;;;;5054863;28;20053;-27
2022/10/04 00:09:41;;;;;;;30.63;17.27;;;11.00;99.90;;;;;;5055501;28;20137;-27
2022/10/04 00:12:25;;;;;;;31.88;17.63;;;11.00;99.90;;;;;;5055451;28;20498;-27
2022/10/04 00:14:53;;;;;;;34.13;17.45;;;10.90;99.90;;;;;;5055100;28;20086;-27
2022/10/04 00:17:26;;;;;;;31.83;17.52;;;10.90;99.90;;;;;;5055017;28;20049;-27
2022/10/04 00:19:53;;;;;;;31.65;17.73;;;10.90;99.90;;;;;;5054476;28;20092;-27
2022/10/04 00:22:28;;;;;;;31.73;18.67;;;10.90;99.90;;;;;;5037043;28;20041;-27
2022/10/04 00:25:16;;;;;;;31.63;16.25;;;10.90;99.90;;;;;;5055423;28;20037;-27
2022/10/04 00:28:16;;;;;;;39.08;18.80;;;10.80;99.90;;;;;;5054445;28;20491;-27
2022/10/04 00:30:41;;;;;;;32.45;17.85;;;10.80;99.90;;;;;;5054774;28;20044;-27
2022/10/04 00:33:07;;;;;;;28.35;17.67;;;10.70;99.90;;;;;;5054730;28;20095;-27
2022/10/04 00:35:34;;;;;;;34.03;16.90;;;10.70;99.90;;;;;;5053668;28;20057;-27
2022/10/04 00:38:05;;;;;;;33.10;17.50;;;10.70;99.90;;;;;;5054475;28;20118;-27
2022/10/04 00:40:35;;;;;;;32.53;16.45;;;10.70;99.90;;;;;;5054429;28;20048;-27
2022/10/04 00:43:07;;;;;;;27.85;17.38;;;10.70;99.90;;;;;;5053300;28;20139;-27
2022/10/04 00:45:33;;;;;;;34.75;18.98;;;10.60;99.90;;;;;;5054747;28;20124;-27
2022/10/04 00:48:04;;;;;;;28.88;17.30;;;10.70;99.90;;;;;;5054436;28;20525;-27
2022/10/04 00:50:42;;;;;;;27.88;17.10;;;10.60;99.90;;;;;;5054955;28;20387;-27
2022/10/04 00:53:21;;;;;;;32.13;18.27;;;10.60;99.90;;;;;;5053677;28;20144;-27
2022/10/04 00:55:57;;;;;;;31.48;19.20;;;10.60;99.90;;;;;;5053030;28;20052;-28
2022/10/04 00:58:30;;;;;;;39.40;19.58;;;10.50;99.90;;;;;;5052899;28;20069;-27
2022/10/04 01:00:56;;;;;;;;;;;10.50;99.90;;;;;;5054309;28;20091;-27
2022/10/04 01:03:43;;;;;;;38.33;18.40;;;10.50;99.90;;;;;;5054365;28;19925;-27
2022/10/04 01:06:10;;;;;;;32.42;19.15;;;10.50;99.90;;;;;;5053842;28;20115;-28
2022/10/04 01:08:47;;;;;;;38.10;19.77;;;10.40;99.90;;;;;;5052843;28;20416;-27
2022/10/04 01:11:21;;;;;;;31.58;19.48;;;10.50;99.90;;;;;;5053945;28;20057;-27
2022/10/04 01:13:57;;;;;;;33.30;18.30;;;10.50;99.90;;;;;;5054908;28;20421;-27
2022/10/04 01:16:33;;;;;;;39.47;21.13;;;10.60;99.90;;;;;;5053316;28;20041;-27
2022/10/04 01:19:20;;;;;;;42.22;19.70;;;10.70;99.90;;;;;;5054190;28;20498;-27
2022/10/04 01:21:56;;;;;;;29.20;19.25;;;10.80;99.90;;;;;;5054129;28;20158;-27
2022/10/04 01:24:23;;;;;;;29.40;18.75;;;10.80;99.90;;;;;;5053812;28;20106;-27
2022/10/04 01:26:49;;;;;;;41.72;20.00;;;10.80;99.90;;;;;;5054367;28;20053;-27
2022/10/04 01:29:24;;;;;;;31.63;18.13;;;10.80;99.90;;;;;;5054302;28;20051;-27
2022/10/04 01:31:53;;;;;;;35.60;18.00;;;10.90;99.90;;;;;;5053646;28;20107;-27
2022/10/04 01:34:21;;;;;;;31.58;17.98;;;10.80;99.90;;;;;;5036945;28;20128;-27
2022/10/04 01:36:50;;;;;;;27.88;16.92;;;10.80;99.90;;;;;;5053630;28;20049;-27
2022/10/04 01:39:18;;;;;;;33.60;18.25;;;10.90;99.90;;;;;;5052066;28;20426;-27
2022/10/04 01:42:09;;;;;;;25.05;16.48;;;10.90;99.90;;;;;;5053612;28;20136;-27
2022/10/04 01:44:54;;;;;;;30.67;16.38;;;10.90;99.90;;;;;;5052435;28;20092;-27
2022/10/04 01:47:30;;;;;;;28.92;16.50;;;10.90;99.90;;;;;;5052913;28;20052;-27
2022/10/04 01:50:01;;;;;;;26.27;14.65;;;10.90;99.90;;;;;;5053558;28;20479;-27
2022/10/04 01:52:43;;;;;;;33.53;16.92;;;10.90;99.90;;;;;;5069587;28;20111;-27
2022/10/04 01:55:44;;;;;;;32.97;16.73;;;10.90;99.90;;;;;;5053417;28;20056;-26
2022/10/04 01:58:19;;;;;;;21.90;14.02;;;10.80;99.90;;;;;;5044293;28;20056;-27
2022/10/04 02:00:50;;;;;;;25.85;14.98;;;10.80;99.90;;;;;;5053779;28;20049;-27
2022/10/04 02:03:31;;;;;;;29.30;14.98;;;10.80;99.90;;;;;;5053757;28;20045;-27
2022/10/04 02:06:01;;;;;;;30.45;15.65;;;10.80;99.90;;;;;;5054028;28;20127;-27
2022/10/04 02:08:32;;;;;;;25.55;14.98;;;10.80;99.90;;;;;;5053226;28;20044;-27
2022/10/04 02:11:00;;;;;;;25.75;14.35;;;10.80;99.90;;;;;;5058054;28;20083;-27
2022/10/04 02:13:32;;;;;;;30.27;14.30;;;10.80;99.90;;;;;;5057659;28;20451;-27
2022/10/04 02:15:58;;;;;;;30.42;14.52;;;10.80;99.90;;;;;;5057690;28;20441;-27
2022/10/04 02:18:25;;;;;;;29.83;15.27;;;10.70;99.90;;;;;;5057113;28;20052;-27
2022/10/04 02:20:52;;;;;;;24.40;13.85;;;10.60;99.90;;;;;;5056239;28;20052;-27
2022/10/04 02:23:20;;;;;;;34.75;15.68;;;10.60;99.90;;;;;;5056841;28;20499;-27
2022/10/04 02:25:46;;;;;;;29.58;14.20;;;10.60;99.90;;;;;;5057127;28;20048;-27
2022/10/04 02:28:14;;;;;;;28.70;15.68;;;10.50;99.90;;;;;;5057613;28;20056;-27
2022/10/04 02:33:47;;;;;;;25.80;14.37;;;10.40;99.90;;;;;;5057043;28;20092;-27
2022/10/04 02:36:14;;;;;;;33.40;15.15;;;10.30;99.90;;;;;;5056884;28;20290;-27
2022/10/04 02:39:14;;;;;;;28.08;15.43;;;10.30;99.90;;;;;;5057212;28;20053;-28
2022/10/04 02:41:49;;;;;;;31.25;16.02;;;10.20;99.90;;;;;;5057399;28;20052;-27
2022/10/04 02:44:24;;;;;;;33.55;16.98;;;10.20;99.90;;;;;;5055426;28;20049;-27
2022/10/04 02:47:13;;;;;;;28.77;16.92;;;10.10;99.90;;;;;;5057341;28;20147;-27
2022/10/04 02:49:52;;;;;;;35.17;17.45;;;10.00;99.90;;;;;;5057304;28;20056;-27
2022/10/04 02:52:37;;;;;;;34.40;17.52;;;10.00;99.90;;;;;;5056741;28;20097;-27
2022/10/04 02:55:19;;;;;;;30.35;17.08;;;10.00;99.90;;;;;;5056529;28;20119;-27
2022/10/04 02:57:46;;;;;;;39.10;19.03;;;9.90;99.90;;;;;;5056646;28;20045;-27
2022/10/04 03:00:11;;;;;;;36.85;17.27;;;9.90;99.90;;;;;;5056458;28;20052;-27
2022/10/04 03:02:38;;;;;;;33.80;17.73;;;9.80;99.90;;;;;;5056479;28;20061;-27
2022/10/04 03:05:08;;;;;;;35.13;17.95;;;9.80;99.90;;;;;;5056005;28;20056;-26
2022/10/04 03:07:35;;;;;;;32.83;17.73;;;9.80;99.90;;;;;;5056568;28;20490;-28
2022/10/04 03:10:06;;;;;;;34.25;18.85;;;9.70;99.90;;;;;;5056300;28;20048;-27
2022/10/04 03:12:32;;;;;;;35.35;18.25;;;9.70;99.90;;;;;;5039552;28;20045;-26
2022/10/04 03:14:58;;;;;;;35.83;17.27;;;9.70;99.90;;;;;;5055084;28;20483;-27
2022/10/04 03:17:25;;;;;;;34.15;18.25;;;9.60;99.90;;;;;;5056475;28;20142;-27
2022/10/04 03:19:51;;;;;;;37.47;18.20;;;9.70;99.90;;;;;;5055485;28;20403;-26
2022/10/04 03:22:17;;;;;;;31.95;16.77;;;9.70;99.90;;;;;;5055885;28;20054;-26
2022/10/04 03:24:50;;;;;;;35.05;17.65;;;9.60;99.90;;;;;;5056496;28;20041;-26
2022/10/04 03:27:21;;;;;;;34.17;16.88;;;9.60;99.90;;;;;;5056575;28;20049;-27
2022/10/04 03:29:49;;;;;;;36.70;18.30;;;9.50;99.90;;;;;;5055422;28;20132;-27
2022/10/04 03:32:17;;;;;;;32.42;17.38;;;9.50;99.90;;;;;;5055555;28;20481;-27
2022/10/04 03:35:06;;;;;;;35.65;16.70;;;9.40;99.90;;;;;;5054715;28;20037;-27
2022/10/04 03:37:36;;;;;;;30.52;17.42;;;9.40;99.90;;;;;;5054652;28;20518;-27
2022/10/04 03:40:07;;;;;;;29.10;16.27;;;9.40;99.90;;;;;;5056556;28;20383;-27
2022/10/04 03:42:35;;;;;;;32.17;18.08;;;9.40;99.90;;;;;;5055726;28;20045;-27
2022/10/04 03:45:10;;;;;;;31.75;16.95;;;9.40;99.90;;;;;;5056214;28;20062;-27
2022/10/04 03:47:39;;;;;;;29.92;17.13;;;9.40;99.90;;;;;;5055610;28;20119;-26
2022/10/04 03:50:25;;;;;;;36.28;18.02;;;9.40;99.90;;;;;;5056131;28;20053;-26
2022/10/04 03:52:57;;;;;;;37.72;17.08;;;9.40;99.90;;;;;;5054560;28;20057;-27
2022/10/04 03:55:30;;;;;;;34.60;18.00;;;9.30;99.90;;;;;;5055452;28;20056;-27
2022/10/04 03:57:57;;;;;;;;;;;9.30;99.90;;;;;;5055919;28;20049;-26
2022/10/04 04:00:23;;;;;;;35.83;17.55;;;9.40;99.90;;;;;;5037547;28;19921;-26
2022/10/04 04:02:55;;;;;;;33.13;17.77;;;9.40;99.90;;;;;;5055834;28;20364;-27
2022/10/04 04:05:29;;;;;;;32.07;17.50;;;9.30;99.90;;;;;;5055823;28;20451;-26
2022/10/04 04:07:58;;;;;;;41.90;18.92;;;9.30;99.90;;;;;;5055834;28;20283;-27
2022/10/04 04:10:27;;;;;;;35.42;17.88;;;9.20;99.90;;;;;;5055163;28;20052;-27
2022/10/04 04:13:17;;;;;;;33.90;17.63;;;9.20;99.90;;;;;;5054148;28;20053;-27
2022/10/04 04:15:44;;;;;;;34.33;18.77;;;9.20;99.90;;;;;;5055684;28;20044;-27
2022/10/04 04:18:21;;;;;;;40.13;19.75;;;9.20;99.90;;;;;;5055021;28;20388;-27
2022/10/04 04:20:52;;;;;;;29.63;18.70;;;9.20;99.90;;;;;;5054596;28;20049;-26
2022/10/04 04:23:23;;;;;;;39.63;19.48;;;9.20;99.90;;;;;;5055804;28;20171;-28
2022/10/04 04:25:53;;;;;;;39.50;18.80;;;9.10;99.90;;;;;;5054864;28;20061;-26
2022/10/04 04:28:39;;;;;;;33.38;18.45;;;9.10;99.90;;;;;;5055438;28;20053;-27
2022/10/04 04:31:24;;;;;;;38.95;18.92;;;9.10;99.90;;;;;;5054753;28;20045;-27
2022/10/04 04:33:59;;;;;;;30.80;20.02;;;9.10;99.90;;;;;;5055322;28;20121;-27
2022/10/04 04:36:31;;;;;;;42.13;19.95;;;9.00;99.90;;;;;;5053250;28;20457;-27
2022/10/04 04:39:38;;;;;;;35.03;19.73;;;9.00;99.90;;;;;;5036700;28;20073;-26
2022/10/04 04:42:09;;;;;;;30.75;18.67;;;9.10;99.90;;;;;;5054246;28;20503;-27
2022/10/04 04:44:37;;;;;;;33.53;20.85;;;9.10;99.90;;;;;;5054248;28;20114;-26
2022/10/04 04:47:09;;;;;;;40.83;20.45;;;9.10;99.90;;;;;;5053523;28;20136;-27
2022/10/04 04:49:38;;;;;;;39.17;20.05;;;9.20;99.90;;;;;;5054427;28;20076;-27
2022/10/04 04:52:05;;;;;;;32.95;19.58;;;9.10;99.90;;;;;;5054351;28;20041;-27
2022/10/04 04:54:31;;;;;;;42.95;19.60;;;9.10;99.90;;;;;;5054232;28;20083;-27
2022/10/04 04:56:57;;;;;;;34.67;20.02;;;9.10;99.90;;;;;;5053057;28;20136;-27
2022/10/04 04:59:26;;;;;;;36.88;22.02;;;9.10;99.90;;;;;;5054270;28;20135;-27
2022/10/04 05:01:52;;;;;;;33.00;18.92;;;9.10;99.90;;;;;;5053870;28;20494;-27
2022/10/04 05:04:22;;;;;;;37.67;21.33;;;9.00;99.90;;;;;;5053635;28;20094;-27
2022/10/04 05:07:13;;;;;;;35.47;20.10;;;9.00;99.90;;;;;;5054132;28;20211;-27
2022/10/04 05:09:39;;;;;;;35.05;19.58;;;9.00;99.90;;;;;;5054123;28;20102;-26
2022/10/04 05:12:15;;;;;;;37.17;21.70;;;8.90;99.90;;;;;;5054014;28;20137;-27
2022/10/04 05:14:46;;;;;;;40.70;21.95;;;8.90;99.90;;;;;;5053337;28;20051;-26
2022/10/04 05:17:32;;;;;;;39.35;21.13;;;8.90;99.90;;;;;;5053973;28;20045;-27
2022/10/04 05:20:00;;;;;;;34.03;21.05;;;8.90;99.90;;;;;;5053957;28;20048;-27
2022/10/04 05:22:28;;;;;;;34.80;21.40;;;8.80;99.90;;;;;;5053842;28;20145;-27
2022/10/04 05:24:59;;;;;;;34.90;20.95;;;8.80;99.90;;;;;;5053726;28;20625;-27
2022/10/04 05:27:36;;;;;;;41.95;24.38;;;8.80;99.90;;;;;;5036602;28;20056;-27
2022/10/04 05:30:05;;;;;;;39.58;22.17;;;8.70;99.90;;;;;;5054364;28;20360;-27
2022/10/04 05:32:56;;;;;;;38.63;22.45;;;8.70;99.90;;;;;;5053157;28;20049;-26
2022/10/04 05:35:22;;;;;;;48.90;24.52;;;8.70;99.90;;;;;;5053605;28;20093;-26
2022/10/04 05:38:33;;;;;;;39.95;23.83;;;8.70;99.90;;;;;;5053692;28;20084;-27
2022/10/04 05:41:27;;;;;;;44.53;24.70;;;8.70;99.90;;;;;;5034308;28;20059;-27
2022/10/04 05:43:53;;;;;;;42.00;23.50;;;8.60;99.90;;;;;;5053650;28;20117;-26
2022/10/04 05:46:30;;;;;;;42.53;25.27;;;8.60;99.90;;;;;;5053864;28;20060;-26
2022/10/04 05:49:16;;;;;;;46.67;24.38;;;8.60;99.90;;;;;;5053581;28;20044;-26
2022/10/04 05:51:59;;;;;;;43.53;25.70;;;8.60;99.90;;;;;;5053564;28;20052;-26
2022/10/04 05:54:32;;;;;;;46.30;27.30;;;8.60;99.90;;;;;;5053854;28;20444;-26
2022/10/04 05:57:26;;;;;;;45.58;26.63;;;8.60;99.90;;;;;;5053579;28;20080;-26
2022/10/04 06:00:34;;;;;;;46.03;27.90;;;8.70;99.90;;;;;;5053569;28;20044;-26
2022/10/04 06:03:17;;;;;;;44.80;26.00;;;8.80;99.90;;;;;;5034399;28;20057;-27
2022/10/04 06:05:58;;;;;;;46.72;26.73;;;8.70;99.90;;;;;;5052236;28;20037;-26
2022/10/04 06:08:30;;;;;;;45.05;26.10;;;8.70;99.90;;;;;;5053014;28;20103;-26
2022/10/04 06:11:08;;;;;;;46.28;26.58;;;8.70;99.90;;;;;;5053599;28;20505;-26
2022/10/04 06:13:39;;;;;;;45.05;28.00;;;8.70;99.90;;;;;;5053941;28;20091;-26
2022/10/04 06:16:20;;;;;;;52.08;28.50;;;8.70;99.90;;;;;;5054166;28;20391;-26
2022/10/04 06:19:05;;;;;;;46.13;29.23;;;8.80;99.90;;;;;;5053611;28;20088;-26
2022/10/04 06:21:41;;;;;;;43.75;27.77;;;8.90;99.90;;;;;;5053236;28;20537;-26
2022/10/04 06:24:20;;;;;;;42.55;27.20;;;9.00;99.90;;;;;;5053770;28;20124;-26
2022/10/04 06:26:54;;;;;;;49.08;27.70;;;9.10;99.90;;;;;;5053810;28;20049;-26
2022/10/04 06:29:27;;;;;;;49.95;28.23;;;9.20;99.90;;;;;;5054335;28;20381;-27
2022/10/04 06:31:58;;;;;;;37.15;26.00;;;9.30;99.90;;;;;;5053214;28;20045;-26
2022/10/04 06:34:39;;;;;;;43.88;28.00;;;9.40;99.90;;;;;;5053466;28;20422;-27
2022/10/04 06:37:10;;;;;;;45.75;27.67;;;9.60;99.90;;;;;;5052760;28;20057;-26
2022/10/04 06:40:15;;;;;;;43.42;26.25;;;9.60;99.90;;;;;;5053764;28;20061;-27
2022/10/04 06:42:54;;;;;;;40.28;24.10;;;9.70;99.90;;;;;;4995853;28;20050;-27
2022/10/04 06:45:53;;;;;;;34.58;22.75;;;9.80;99.90;;;;;;5011616;28;20046;-26
2022/10/04 06:48:51;;;;;;;34.63;22.15;;;10.00;99.90;;;;;;5044335;28;20071;-27
2022/10/04 06:51:26;;;;;;;31.77;22.10;;;10.20;99.90;;;;;;5051744;28;20076;-27
2022/10/04 06:54:00;;;;;;;30.27;19.17;;;10.30;99.90;;;;;;5051949;28;20059;-27
2022/10/04 06:56:58;;;;;;;35.88;19.15;;;10.50;99.90;;;;;;5055056;28;20044;-27
2022/10/04 07:00:02;;;;;;;29.63;18.13;;;10.60;99.90;;;;;;5025094;28;20499;-27
2022/10/04 07:02:34;;;;;;;27.40;18.38;;;10.70;99.90;;;;;;5056584;28;20055;-27
2022/10/04 07:05:10;;;;;;;30.83;19.02;;;10.90;99.90;;;;;;5055304;28;20041;-27
2022/10/04 07:07:40;;;;;;;27.75;17.27;;;11.00;99.90;;;;;;5057063;28;20049;-27
2022/10/04 07:10:31;;;;;;;30.30;16.42;;;11.10;99.90;;;;;;5056009;28;20399;-27
2022/10/04 07:13:02;;;;;;;26.98;17.05;;;11.20;99.90;;;;;;5057085;28;20075;-27
2022/10/04 07:15:33;;;;;;;25.63;16.50;;;11.30;99.90;;;;;;5055551;28;20043;-26
2022/10/04 07:18:05;;;;;;;29.67;16.00;;;11.30;99.90;;;;;;5055856;28;20064;-28
2022/10/04 07:20:34;;;;;;;26.42;15.25;;;11.30;99.90;;;;;;5054785;28;20372;-27
2022/10/04 07:23:13;;;;;;;25.23;15.02;;;11.30;99.90;;;;;;5039307;28;20052;-27
2022/10/04 07:25:51;;;;;;;23.45;14.95;;;11.40;99.90;;;;;;5056313;28;20044;-27
2022/10/04 07:31:21;;;;;;;23.50;12.45;;;11.80;99.90;;;;;;5055912;28;20059;-27
2022/10/04 07:34:01;;;;;;;21.88;13.45;;;12.10;99.90;;;;;;5056581;28;20048;-27
2022/10/04 07:36:49;;;;;;;23.15;13.65;;;12.20;99.90;;;;;;5056472;28;20055;-27
2022/10/04 07:39:17;;;;;;;21.48;12.45;;;12.40;99.90;;;;;;5056086;28;20055;-27
2022/10/04 07:42:08;;;;;;;18.85;11.52;;;12.50;99.90;;;;;;5054768;28;20051;-27
2022/10/04 07:44:40;;;;;;;17.73;11.98;;;12.40;99.90;;;;;;5040456;28;20041;-27
2022/10/04 07:47:17;;;;;;;23.48;13.20;;;12.40;99.90;;;;;;5056565;28;20380;-27
2022/10/04 07:49:43;;;;;;;23.75;12.70;;;12.30;99.90;;;;;;5055665;28;20131;-27
2022/10/04 07:52:17;;;;;;;27.95;13.73;;;12.30;99.90;;;;;;5055586;28;20110;-27
2022/10/04 07:55:04;;;;;;;20.88;13.40;;;12.30;99.90;;;;;;5055419;28;20064;-27
2022/10/04 07:58:13;;;;;;;24.30;13.88;;;12.30;99.90;;;;;;5055484;28;20048;-27
2022/10/04 08:00:55;;;;;;;26.67;13.02;;;12.30;99.90;;;;;;5055421;28;20466;-26
2022/10/04 08:03:36;;;;;;;22.02;13.02;;;12.30;99.90;;;;;;5055963;28;20436;-27
2022/10/04 08:06:29;;;;;;;21.70;13.23;;;12.30;99.90;;;;;;5054411;28;20052;-27
2022/10/04 08:08:57;;;;;;;;;;;12.30;99.90;;;;;;5054791;28;20053;-27
2022/10/04 08:11:37;;;;;;;24.13;12.88;;;12.30;99.90;;;;;;5037634;28;20379;-27
2022/10/04 08:14:37;;;;;;;22.38;13.07;;;12.50;99.90;;;;;;5054766;28;20383;-28
2022/10/04 08:17:40;;;;;;;15.93;11.90;;;12.50;99.90;;;;;;5055903;28;20072;-27
2022/10/04 08:20:38;;;;;;;20.90;12.52;;;12.60;99.90;;;;;;5053935;28;20048;-28
2022/10/04 08:23:19;;;;;;;20.98;12.15;;;12.70;99.90;;;;;;5055565;28;20182;-27
2022/10/04 08:26:11;;;;;;;16.35;11.75;;;12.80;99.90;;;;;;5054934;28;20132;-27
2022/10/04 08:31:59;;;;;;;20.05;12.02;;;12.90;99.90;;;;;;5054167;28;20052;-27
2022/10/04 08:34:55;;;;;;;18.33;11.48;;;13.10;99.90;;;;;;5055351;28;20052;-27
2022/10/04 08:37:34;;;;;;;17.08;10.57;;;13.10;99.90;;;;;;5055217;28;20049;-26
2022/10/04 08:40:32;;;;;;;17.42;8.98;;;13.30;99.90;;;;;;5055103;28;20057;-26
2022/10/04 08:43:21;;;;;;;16.80;8.50;;;13.30;99.90;;;;;;5071149;28;20057;-27
2022/10/04 08:46:11;;;;;;;17.40;9.90;;;13.30;99.90;;;;;;5053608;28;20045;-27
2022/10/04 08:48:59;;;;;;;15.90;9.40;;;13.40;99.90;;;;;;5054533;28;20053;-27
2022/10/04 08:51:27;;;;;;;12.05;8.55;;;13.50;99.90;;;;;;5054400;28;20048;-27
2022/10/04 08:54:05;;;;;;;17.67;8.75;;;13.60;99.90;;;;;;5054293;28;20059;-27
2022/10/04 08:56:49;;;;;;;19.38;9.23;;;13.50;99.90;;;;;;5054224;28;20132;-27
2022/10/04 08:59:23;;;;;;;17.45;9.80;;;13.60;99.90;;;;;;5054512;28;20402;-27
2022/10/04 09:01:58;;;;;;;14.25;9.15;;;13.70;99.90;;;;;;5053696;28;20522;-27
2022/10/04 09:04:59;;;;;;;17.45;8.27;;;13.80;99.90;;;;;;5053099;28;20102;-26
2022/10/04 09:08:04;;;;;;;12.80;8.27;;;13.90;99.90;;;;;;5054065;28;20049;-27
2022/10/04 09:11:05;;;;;;;13.52;9.23;;;15.10;99.90;;;;;;5034522;28;20049;-26
2022/10/04 09:13:37;;;;;;;16.02;11.10;;;15.50;99.90;;;;;;5054190;28;20045;-26
2022/10/04 09:16:40;;;;;;;18.95;12.50;;;16.10;99.90;;;;;;5053988;28;20076;-26
2022/10/04 09:19:19;;;;;;;19.98;11.05;;;16.40;99.90;;;;;;5030355;28;20053;-27
2022/10/04 09:21:45;;;;;;;13.43;10.20;;;16.90;99.90;;;;;;5053942;28;20487;-26
2022/10/04 09:24:17;;;;;;;14.35;10.15;;;16.90;99.90;;;;;;5053770;28;20041;-26
2022/10/04 09:27:11;;;;;;;15.30;9.82;;;16.90;1.00;;;;;;5053943;28;20084;-27
2022/10/04 09:29:48;;;;;;;12.68;8.07;;;17.10;1.00;;;;;;5053886;28;20091;-26
2022/10/04 09:32:32;;;;;;;15.40;7.50;;;17.20;13.30;;;;;;5054120;28;20076;-26
2022/10/04 09:35:23;;;;;;;14.95;7.68;;;17.30;1.00;;;;;;5054007;28;20045;-27
2022/10/04 09:38:09;;;;;;;12.02;6.05;;;17.30;1.00;;;;;;5053524;28;20146;-26
2022/10/04 09:41:02;;;;;;;12.45;6.57;;;17.40;99.90;;;;;;5052482;28;20057;-26
2022/10/04 09:43:46;;;;;;;;;;;17.50;1.00;;;;;;5054365;28;20478;-26
2022/10/04 09:46:21;;;;;;;11.85;5.68;;;17.30;1.00;;;;;;5054205;28;20274;-27
2022/10/04 09:49:04;;;;;;;11.02;5.10;;;17.60;99.90;;;;;;5053555;28;20487;-26
2022/10/04 09:51:52;;;;;;;11.55;5.22;;;17.60;99.90;;;;;;5054445;28;20388;-27
2022/10/04 09:54:48;;;;;;;10.25;5.18;;;17.50;99.90;;;;;;5054307;28;20041;-26
2022/10/04 09:57:53;;;;;;;13.93;5.18;;;17.40;1.00;;;;;;5053121;28;20044;-26
2022/10/04 10:00:25;;;;;;;14.80;6.50;;;17.60;1.00;;;;;;5054067;28;20110;-26
2022/10/04 10:03:16;;;;;;;11.37;7.43;;;17.70;1.00;;;;;;5052822;28;20057;-26
2022/10/04 10:06:14;;;;;;;13.43;7.40;;;17.70;1.00;;;;;;5053396;28;20306;-26
2022/10/04 10:09:06;;;;;;;15.23;8.48;;;17.70;1.00;;;;;;5052464;28;20057;-26
2022/10/04 10:14:52;;;;;;;9.98;6.55;;;17.80;4.30;;;;;;5053977;28;20041;-26
2022/10/04 10:17:23;;;;;;;13.15;6.97;;;17.80;1.00;;;;;;5035829;28;20095;-26
2022/10/04 10:19:58;;;;;;;14.60;8.10;;;18.00;1.00;;;;;;5053311;28;20495;-26
2022/10/04 10:22:40;;;;;;;11.93;7.88;;;18.20;1.00;;;;;;5053860;28;20053;-26
2022/10/04 10:25:47;;;;;;;10.07;6.47;;;18.10;99.90;;;;;;5053208;28;20044;-26
2022/10/04 10:28:44;;;;;;;15.15;7.97;;;18.30;99.90;;;;;;5052123;28;20053;-26
2022/10/04 10:31:12;;;;;;;14.93;7.78;;;18.40;91.00;;;;;;5056856;28;20391;-26
2022/10/04 10:34:00;;;;;;;15.18;7.85;;;18.60;99.90;;;;;;5039995;28;20136;-27
2022/10/04 10:36:59;;;;;;;12.80;7.28;;;18.60;27.30;;;;;;5056051;28;20088;-26
2022/10/04 10:39:37;;;;;;;18.15;10.02;;;18.30;99.90;;;;;;5055557;28;20052;-26
2022/10/04 10:42:54;;;;;;;11.95;7.45;;;17.80;1.00;;;;;;5056926;28;20044;-26
2022/10/04 10:45:32;;;;;;;16.20;8.13;;;17.50;36.70;;;;;;5044611;28;20053;-26
2022/10/04 10:48:05;;;;;;;11.88;7.00;;;17.20;1.00;;;;;;5057111;28;20045;-26
2022/10/04 10:50:58;;;;;;;13.68;7.65;;;17.40;99.90;;;;;;5056856;28;20048;-26
2022/10/04 10:53:44;;;;;;;13.63;7.30;;;17.20;1.00;;;;;;5055472;28;20059;-26
2022/10/04 10:56:34;;;;;;;11.63;7.05;;;16.90;99.90;;;;;;5057241;28;20063;-25
2022/10/04 10:59:33;;;;;;;11.57;5.95;;;16.70;99.90;;;;;;5059417;28;20075;-26
2022/10/04 11:02:11;;;;;;;11.48;7.18;;;17.00;99.90;;;;;;5071718;28;20080;-26
2022/10/04 11:04:53;;;;;;;11.88;7.43;;;17.20;1.00;;;;;;5075625;28;20080;-26
2022/10/04 11:07:50;;;;;;;12.32;6.80;;;17.60;99.90;;;;;;5075378;28;20131;-27
2022/10/04 11:10:32;;;;;;;10.55;5.93;;;18.10;99.90;;;;;;5076700;28;20151;-26
2022/10/04 11:13:25;;;;;;;7.63;4.95;;;18.60;99.90;;;;;;5076974;28;20084;-26
2022/10/04 11:16:24;;;;;;;10.80;5.47;;;18.50;82.30;;;;;;5075638;28;20096;-26
2022/10/04 11:19:45;;;;;;;9.95;6.28;;;18.30;99.90;;;;;;5075934;28;20494;-26
2022/10/04 11:22:43;;;;;;;9.18;6.47;;;18.90;95.70;;;;;;5037745;28;20064;-26
2022/10/04 11:25:46;;;;;;;10.93;6.38;;;18.90;89.50;;;;;;5076674;28;20049;-26
2022/10/04 11:28:12;;;;;;;10.32;6.35;;;18.40;99.90;;;;;;5065872;28;20138;-26
2022/10/04 11:30:57;;;;;;;9.10;6.05;;;18.70;1.00;;;;;;5076067;28;20123;-26
2022/10/04 11:33:22;;;;;;;11.07;6.50;;;18.40;99.90;;;;;;5076008;28;20080;-26
2022/10/04 11:36:20;;;;;;;11.27;5.65;;;17.80;1.00;;;;;;5074672;28;20087;-26
2022/10/04 11:39:22;;;;;;;13.07;6.40;;;17.70;1.00;;;;;;5071549;28;20501;-26
2022/10/04 11:42:17;;;;;;;9.38;6.65;;;17.60;99.90;;;;;;5074830;28;20052;-26
2022/10/04 11:44:43;;;;;;;11.25;5.07;;;17.80;93.60;;;;;;5074968;28;20044;-26
2022/10/04 11:47:14;;;;;;;9.07;5.55;;;18.20;53.80;;;;;;5075674;28;20048;-26
2022/10/04 11:50:01;;;;;;;11.38;5.10;;;18.60;99.90;;;;;;5075459;28;20067;-26
2022/10/04 11:53:05;;;;;;;8.73;4.38;;;18.70;99.90;;;;;;5075940;28;20055;-26
2022/10/04 11:55:56;;;;;;;7.20;4.55;;;19.10;90.50;;;;;;5075495;28;20059;-26
2022/10/04 11:59:06;;;;;;;9.95;5.93;;;18.80;1.00;;;;;;5075546;28;20131;-26
2022/10/04 12:02:15;;;;;;;7.25;4.93;;;18.50;99.90;;;;;;5036585;28;20052;-26
2022/10/04 12:05:10;;;;;;;10.75;5.47;;;18.90;99.90;;;;;;5073994;28;20119;-26
2022/10/04 12:08:01;;;;;;;8.85;5.18;;;19.20;99.90;;;;;;5071922;28;20502;-26
2022/10/04 12:10:32;;;;;;;16.10;7.43;;;19.10;1.00;;;;;;5057596;28;20604;-26
2022/10/04 12:13:28;;;;;;;10.40;5.50;;;19.20;99.90;;;;;;5074849;28;20048;-26
2022/10/04 12:16:31;;;;;;;10.02;5.32;;;19.10;94.40;;;;;;5075047;28;20052;-26
2022/10/04 12:19:19;;;;;;;11.20;5.75;;;18.70;36.20;;;;;;5074417;28;20048;-26
2022/10/04 12:21:49;;;;;;;11.90;5.70;;;18.80;59.70;;;;;;5075093;28;20056;-26
2022/10/04 12:24:27;;;;;;;9.82;4.80;;;19.00;99.90;;;;;;5074735;28;20040;-26
2022/10/04 12:27:17;;;;;;;10.45;5.60;;;19.00;85.60;;;;;;5075208;28;20131;-26
2022/10/04 12:30:10;;;;;;;8.93;5.25;;;19.40;99.90;;;;;;5074810;28;20114;-26
2022/10/04 12:32:53;;;;;;;8.38;5.05;;;19.40;1.00;;;;;;5074855;28;20048;-26
2022/10/04 12:35:30;;;;;;;9.27;4.97;;;19.50;1.00;;;;;;5075618;28;20122;-26
2022/10/04 12:38:35;;;;;;;11.40;5.57;;;19.40;1.00;;;;;;5073771;28;20048;-26
2022/10/04 12:41:23;;;;;;;9.60;4.60;;;19.20;7.30;;;;;;5074730;28;20052;-26
2022/10/04 12:43:55;;;;;;;10.75;5.00;;;19.20;99.90;;;;;;5074468;28;20040;-26
2022/10/04 12:46:56;;;;;;;8.65;5.85;;;18.90;99.90;;;;;;5074524;28;20059;-26
2022/10/04 12:49:51;;;;;;;9.52;5.57;;;18.80;99.90;;;;;;5052411;28;20107;-26
2022/10/04 12:52:26;;;;;;;12.65;5.63;;;18.50;99.90;;;;;;5074820;28;20044;-26
2022/10/04 12:55:08;;;;;;;11.18;6.25;;;18.40;1.00;;;;;;5073689;28;20041;-25
2022/10/04 12:57:59;;;;;;;8.65;5.72;;;18.30;99.90;;;;;;5074933;28;20084;-26
2022/10/04 13:00:28;;;;;;;10.13;4.95;;;18.10;99.90;;;;;;5074197;28;20052;-25
2022/10/04 13:03:17;;;;;;;11.00;5.63;;;18.00;1.00;;;;;;5074224;28;20160;-25
2022/10/04 13:05:46;;;;;;;7.32;4.10;;;17.80;1.00;;;;;;5073706;28;20045;-26
2022/10/04 13:08:33;;;;;;;6.60;3.50;;;17.80;1.00;;;;;;5074050;28;20055;-26
2022/10/04 13:11:23;;;;;;;6.85;4.00;;;18.00;1.00;;;;;;5074138;28;20052;-25
2022/10/04 13:14:14;;;;;;;7.80;4.32;;;18.30;1.00;;;;;;5069216;28;20098;-26
2022/10/04 13:17:06;;;;;;;5.57;4.00;;;18.60;99.90;;;;;;5054877;28;20084;-26
2022/10/04 13:20:01;;;;;;;7.63;4.32;;;18.90;99.90;;;;;;5053991;28;20483;-26
2022/10/04 13:22:59;;;;;;;12.30;4.40;;;19.10;1.00;;;;;;5053966;28;20479;-26
2022/10/04 13:25:36;;;;;;;12.38;4.63;;;19.20;1.00;;;;;;5060602;28;20037;-26
2022/10/04 13:28:29;;;;;;;7.65;4.45;;;19.20;99.90;;;;;;5072941;28;20106;-25
2022/10/04 13:31:03;;;;;;;9.02;5.07;;;19.10;99.90;;;;;;5074496;28;20094;-26
2022/10/04 13:33:57;;;;;;;10.23;4.82;;;18.80;99.90;;;;;;5055400;28;20048;-26
2022/10/04 13:36:56;;;;;;;9.00;4.80;;;18.50;99.90;;;;;;5054330;28;20147;-25
2022/10/04 13:39:33;;;;;;;8.70;4.70;;;18.20;99.90;;;;;;5054760;28;20052;-26
2022/10/04 13:42:07;;;;;;;8.80;4.47;;;17.70;99.90;;;;;;5065781;28;20509;-25
2022/10/04 13:44:39;;;;;;;8.07;4.57;;;17.50;1.00;;;;;;5054129;28;20123;-25
2022/10/04 13:47:41;;;;;;;8.27;4.07;;;17.50;1.00;;;;;;5054070;28;20079;-26
2022/10/04 13:50:22;;;;;;;10.02;4.47;;;17.60;99.90;;;;;;5053908;28;20053;-25
2022/10/04 13:56:41;;;;;;;6.55;3.75;;;17.90;1.00;;;;;;5015771;28;20149;-25
2022/10/04 13:59:10;;;;;;;5.78;3.88;;;18.20;99.90;;;;;;5030110;28;20407;-25